Time;durP1;ratioP1;P1;durP2;ratioP2;P2;SDS_P1;SDS_P2;PMS_P1;PMS_P2;Temp;Humidity;BMP_temperature;BMP_pressure;BME280_temperature;BME280_humidity;BME280_pressure;Samples;Min_cycle;Max_cycle;Signal;HPM_P1;HPM_P2
2022/02/09 00:00:11;;;;;;;5.50;4.10;;;;;;;;;;5109005;28;20459;-82
2022/02/09 00:02:48;;;;;;;3.37;3.07;;;;;;;;;;5104218;28;20458;-82
2022/02/09 00:05:27;;;;;;;4.33;3.73;;;;;;;;;;5090688;28;20946;-80
2022/02/09 00:08:00;;;;;;;4.57;4.17;;;;;;;;;;5109344;28;20949;-85
2022/02/09 00:10:31;;;;;;;4.87;4.27;;;;;;;;;;5111962;28;20462;-81
2022/02/09 00:13:38;;;;;;;4.67;4.23;;;;;;;;;;5062997;28;20429;-83
2022/02/09 00:16:14;;;;;;;4.67;4.20;;;;;;;;;;5060833;28;21071;-79
2022/02/09 00:18:49;;;;;;;5.47;4.40;;;;;;;;;;5064313;28;20514;-81
2022/02/09 00:21:33;;;;;;;4.50;4.10;;;;;;;;;;5066878;28;20501;-80
2022/02/09 00:30:07;;;;;;;6.50;4.63;;;;;;;;;;5114226;27;20476;-81
2022/02/09 00:35:37;;;;;;;7.33;4.93;;;;;;;;;;5130718;27;20804;-82
2022/02/09 00:41:01;;;;;;;5.20;4.80;;;;;;;;;;5125183;28;20538;-83
2022/02/09 01:40:02;;;;;;;4.37;3.97;;;;;;;;;;5130975;27;20465;-81
2022/02/09 01:56:05;;;;;;;6.47;4.63;;;;;;;;;;5113788;27;20430;-82
2022/02/09 01:58:33;;;;;;;4.70;4.30;;;;;;;;;;5118473;27;20937;-82
2022/02/09 02:01:00;;;;;;;6.13;4.67;;;;;;;;;;5113126;27;20467;-83
2022/02/09 02:03:29;;;;;;;4.90;4.40;;;;;;;;;;5111737;28;20434;-80
2022/02/09 02:05:56;;;;;;;5.40;4.47;;;;;;;;;;5115667;27;20481;-84
2022/02/09 02:08:23;;;;;;;6.63;4.30;;;;;;;;;;5132949;27;20843;-82
2022/02/09 02:11:01;;;;;;;4.60;4.20;;;;;;;;;;5132503;27;20813;-82
2022/02/09 02:13:39;;;;;;;5.47;4.30;;;;;;;;;;5117662;27;20459;-81
2022/02/09 02:16:19;;;;;;;8.73;4.90;;;;;;;;;;5115199;27;21056;-83
2022/02/09 02:18:51;;;;;;;5.20;4.30;;;;;;;;;;5127916;27;20454;-79
2022/02/09 02:21:27;;;;;;;4.63;4.23;;;;;;;;;;5116923;27;20522;-82
2022/02/09 02:24:24;;;;;;;4.47;4.03;;;;;;;;;;5113816;27;20978;-82
2022/02/09 02:27:05;;;;;;;4.60;4.10;;;;;;;;;;5127957;27;20486;-78
2022/02/09 02:29:54;;;;;;;4.60;4.20;;;;;;;;;;5131856;27;20441;-80
2022/02/09 02:57:05;;;;;;;5.07;4.30;;;;;;;;;;5035814;28;20988;-84
2022/02/09 02:59:42;;;;;;;4.20;3.80;;;;;;;;;;5046151;28;20445;-79
2022/02/09 03:10:36;;;;;;;4.77;4.27;;;;;;;;;;5086504;28;20834;-80
2022/02/09 03:13:07;;;;;;;6.10;4.33;;;;;;;;;;5081792;28;20455;-83
2022/02/09 03:15:39;;;;;;;4.40;4.00;;;;;;;;;;5084564;28;20435;-85
2022/02/09 03:18:31;;;;;;;5.27;3.90;;;;;;;;;;5096809;28;20453;-82
2022/02/09 03:21:04;;;;;;;4.87;4.37;;;;;;;;;;5108130;28;20550;-84
2022/02/09 03:23:44;;;;;;;5.57;3.90;;;;;;;;;;5110574;28;20446;-82
2022/02/09 03:42:38;;;;;;;3.50;3.20;;;;;;;;;;5130556;27;20559;-82
2022/02/09 03:45:39;;;;;;;3.40;3.10;;;;;;;;;;5119139;27;20503;-80
2022/02/09 03:48:20;;;;;;;4.30;3.07;;;;;;;;;;5115489;27;20461;-81
2022/02/09 03:51:08;;;;;;;3.40;2.73;;;;;;;;;;5123292;27;21167;-81
2022/02/09 03:53:52;;;;;;;3.80;3.17;;;;;;;;;;5130409;27;20444;-81
2022/02/09 03:59:00;;;;;;;2.80;2.53;;;;;;;;;;5126733;27;20449;-83
2022/02/09 04:01:34;;;;;;;3.53;2.70;;;;;;;;;;5126475;27;20481;-82
2022/02/09 04:04:01;;;;;;;5.40;2.37;;;;;;;;;;5110210;28;20516;-80
2022/02/09 04:06:33;;;;;;;2.70;2.30;;;;;;;;;;5127367;27;20488;-79
2022/02/09 04:09:02;;;;;;;4.03;2.70;;;;;;;;;;5120806;27;20533;-83
2022/02/09 04:11:41;;;;;;;3.77;3.23;;;;;;;;;;5116237;27;20461;-82
2022/02/09 04:14:15;;;;;;;3.50;3.03;;;;;;;;;;5109766;28;20447;-83
2022/02/09 04:16:55;;;;;;;5.00;3.40;;;;;;;;;;5109600;28;20863;-82
2022/02/09 04:19:32;;;;;;;3.53;3.20;;;;;;;;;;5121315;27;20861;-82
2022/02/09 04:38:13;;;;;;;3.50;2.70;;;;;;;;;;5123782;27;20450;-81
2022/02/09 04:41:16;;;;;;;3.10;2.40;;;;;;;;;;5130915;27;20568;-83
2022/02/09 04:43:54;;;;;;;3.07;2.77;;;;;;;;;;5112318;28;20438;-82
2022/02/09 04:49:21;;;;;;;3.00;2.70;;;;;;;;;;5112066;28;20521;-84
2022/02/09 04:52:01;;;;;;;2.37;2.17;;;;;;;;;;5113618;27;20457;-81
2022/02/09 04:54:34;;;;;;;4.00;2.93;;;;;;;;;;5126255;27;20521;-81
2022/02/09 04:57:05;;;;;;;3.27;2.53;;;;;;;;;;5128914;27;20824;-80
2022/02/09 04:59:40;;;;;;;2.70;2.40;;;;;;;;;;5129958;27;20527;-78
2022/02/09 05:02:32;;;;;;;2.83;2.50;;;;;;;;;;5129899;27;20815;-82
2022/02/09 05:05:33;;;;;;;6.40;3.40;;;;;;;;;;5119043;27;20450;-82
2022/02/09 05:19:22;;;;;;;3.13;2.80;;;;;;;;;;5068603;28;20471;-82
2022/02/09 05:24:39;;;;;;;4.30;3.90;;;;;;;;;;5092123;28;20500;-80
2022/02/09 05:27:17;;;;;;;4.77;4.07;;;;;;;;;;5095116;28;20965;-80
2022/02/09 05:29:44;;;;;;;5.13;3.70;;;;;;;;;;5081346;28;20471;-83
2022/02/09 05:32:11;;;;;;;3.47;3.17;;;;;;;;;;5059514;28;20459;-79
2022/02/09 05:34:38;;;;;;;3.67;3.20;;;;;;;;;;5089529;28;20447;-80
2022/02/09 05:37:07;;;;;;;4.70;3.50;;;;;;;;;;5070812;28;20456;-80
2022/02/09 05:39:34;;;;;;;3.93;3.53;;;;;;;;;;5087908;28;20459;-83
2022/02/09 05:42:07;;;;;;;3.53;3.13;;;;;;;;;;5105250;27;20457;-79
2022/02/09 05:44:34;;;;;;;3.80;3.23;;;;;;;;;;5118932;27;20988;-81
2022/02/09 05:47:44;;;;;;;4.53;3.63;;;;;;;;;;5113150;27;20478;-78
2022/02/09 05:50:04;;;;;;;4.00;3.60;;;;;;;;;;5110904;28;20455;-82
2022/02/09 05:52:53;;;;;;;4.90;3.73;;;;;;;;;;5112478;27;20539;-81
2022/02/09 05:55:36;;;;;;;4.57;4.17;;;;;;;;;;5117476;27;20460;-83
2022/02/09 05:58:08;;;;;;;5.57;4.00;;;;;;;;;;5121565;27;20450;-80
2022/02/09 06:00:36;;;;;;;4.87;4.40;;;;;;;;;;5114128;28;20463;-82
2022/02/09 06:03:03;;;;;;;5.63;4.70;;;;;;;;;;5115095;27;20446;-80
2022/02/09 06:05:31;;;;;;;4.63;4.00;;;;;;;;;;5117264;27;20449;-81
2022/02/09 06:07:59;;;;;;;4.43;3.93;;;;;;;;;;5113491;27;20451;-79
2022/02/09 06:10:30;;;;;;;5.00;4.30;;;;;;;;;;5129242;27;20822;-83
2022/02/09 06:13:11;;;;;;;4.80;4.03;;;;;;;;;;5132182;27;20494;-82
2022/02/09 06:21:02;;;;;;;4.10;3.73;;;;;;;;;;5112479;28;20453;-84
2022/02/09 06:23:34;;;;;;;4.53;3.90;;;;;;;;;;5113670;28;20441;-80
2022/02/09 06:26:01;;;;;;;7.13;4.17;;;;;;;;;;5118792;27;20485;-80
2022/02/09 06:28:29;;;;;;;4.77;4.00;;;;;;;;;;5116053;27;20451;-79
2022/02/09 06:30:56;;;;;;;4.33;3.80;;;;;;;;;;5111307;27;20489;-80
2022/02/09 06:33:24;;;;;;;4.03;3.73;;;;;;;;;;5110301;28;20453;-83
2022/02/09 06:35:53;;;;;;;3.97;3.50;;;;;;;;;;5110431;27;20564;-82
2022/02/09 06:38:21;;;;;;;4.93;4.47;;;;;;;;;;5131507;27;20506;-80
2022/02/09 06:40:53;;;;;;;4.47;4.07;;;;;;;;;;5127993;27;20477;-79
2022/02/09 06:43:20;;;;;;;3.73;3.20;;;;;;;;;;5092629;28;21545;-80
2022/02/09 06:45:48;;;;;;;3.73;3.43;;;;;;;;;;5090765;28;20444;-80
2022/02/09 06:48:17;;;;;;;3.43;3.10;;;;;;;;;;5108010;27;20471;-81
2022/02/09 06:50:47;;;;;;;4.73;3.37;;;;;;;;;;5115582;27;20461;-84
2022/02/09 06:53:28;;;;;;;5.17;4.03;;;;;;;;;;5128060;27;20536;-82
2022/02/09 06:55:59;;;;;;;3.97;3.33;;;;;;;;;;5131596;27;20457;-80
2022/02/09 06:58:44;;;;;;;3.70;3.30;;;;;;;;;;5117543;27;20489;-84
2022/02/09 07:01:11;;;;;;;4.50;3.40;;;;;;;;;;5111524;28;20466;-80
2022/02/09 07:03:39;;;;;;;4.93;4.00;;;;;;;;;;5109358;28;20947;-80
2022/02/09 07:06:07;;;;;;;5.43;3.83;;;;;;;;;;5111882;28;20441;-78
2022/02/09 07:08:34;;;;;;;4.00;3.50;;;;;;;;;;5117752;27;20458;-80
2022/02/09 07:11:02;;;;;;;4.77;3.83;;;;;;;;;;5117366;27;20812;-80
2022/02/09 07:13:29;;;;;;;7.23;3.63;;;;;;;;;;5128893;27;20438;-79
2022/02/09 07:16:03;;;;;;;4.43;3.97;;;;;;;;;;5129445;27;20444;-80
2022/02/09 07:18:31;;;;;;;6.43;3.97;;;;;;;;;;5126227;27;20540;-85
2022/02/09 07:21:03;;;;;;;5.20;4.00;;;;;;;;;;5131091;27;20807;-81
2022/02/09 07:23:34;;;;;;;5.53;4.20;;;;;;;;;;5124701;27;20446;-80
2022/02/09 07:26:07;;;;;;;5.30;4.10;;;;;;;;;;5125245;27;20467;-80
2022/02/09 07:28:35;;;;;;;4.00;3.60;;;;;;;;;;5116051;27;20446;-79
2022/02/09 07:31:02;;;;;;;4.03;3.63;;;;;;;;;;5110916;27;20479;-79
2022/02/09 07:33:29;;;;;;;4.93;3.73;;;;;;;;;;5110418;27;20451;-80
2022/02/09 07:35:57;;;;;;;5.43;3.90;;;;;;;;;;5128746;27;20433;-78
2022/02/09 07:38:24;;;;;;;7.97;3.90;;;;;;;;;;5122394;27;20453;-83
2022/02/09 07:40:56;;;;;;;5.23;4.20;;;;;;;;;;5124404;27;20986;-81
2022/02/09 07:43:35;;;;;;;4.70;3.63;;;;;;;;;;5111778;27;20454;-81
2022/02/09 07:46:20;;;;;;;4.70;3.90;;;;;;;;;;5115866;27;20431;-79
2022/02/09 07:54:11;;;;;;;4.43;3.90;;;;;;;;;;5129865;27;20452;-81
2022/02/09 07:56:39;;;;;;;6.00;3.90;;;;;;;;;;5130567;27;20918;-82
2022/02/09 07:59:08;;;;;;;4.20;3.27;;;;;;;;;;5114274;27;20947;-79
2022/02/09 08:01:36;;;;;;;3.77;3.10;;;;;;;;;;5114985;27;20457;-80
2022/02/09 08:04:06;;;;;;;4.10;3.70;;;;;;;;;;5117283;27;20434;-81
2022/02/09 08:06:34;;;;;;;3.70;3.40;;;;;;;;;;5122916;27;20477;-79
2022/02/09 08:09:06;;;;;;;5.43;3.03;;;;;;;;;;5129728;27;20444;-81
2022/02/09 08:11:39;;;;;;;2.80;2.47;;;;;;;;;;5130157;27;20461;-81
2022/02/09 08:27:41;;;;;;;5.03;3.93;;;;;;;;;;5128546;27;20473;-78
2022/02/09 08:30:22;;;;;;;3.30;3.00;;;;;;;;;;5129088;27;20452;-82
2022/02/09 08:32:56;;;;;;;4.17;3.50;;;;;;;;;;5123358;27;20448;-81
2022/02/09 08:35:23;;;;;;;4.90;3.20;;;;;;;;;;5112928;28;20461;-82
2022/02/09 08:37:52;;;;;;;3.90;3.43;;;;;;;;;;5116653;27;20678;-82
2022/02/09 08:40:22;;;;;;;5.63;4.23;;;;;;;;;;5118980;27;20469;-76
2022/02/09 08:42:49;;;;;;;4.57;3.50;;;;;;;;;;5126661;28;20477;-81
2022/02/09 08:45:17;;;;;;;3.90;3.33;;;;;;;;;;5130519;27;20461;-80
2022/02/09 08:47:46;;;;;;;5.30;4.30;;;;;;;;;;5134567;27;20477;-80
2022/02/09 08:50:13;;;;;;;5.80;4.13;;;;;;;;;;5123933;27;20834;-79
2022/02/09 08:52:41;;;;;;;3.63;2.97;;;;;;;;;;5113814;28;20786;-81
2022/02/09 08:55:08;;;;;;;4.20;3.60;;;;;;;;;;5126697;27;20457;-80
2022/02/09 08:57:35;;;;;;;5.20;4.00;;;;;;;;;;5119686;27;20469;-84
2022/02/09 09:00:26;;;;;;;5.23;3.90;;;;;;;;;;5121417;27;20453;-80
2022/02/09 09:03:05;;;;;;;3.90;3.50;;;;;;;;;;5110159;28;20931;-79
2022/02/09 09:05:42;;;;;;;6.40;4.10;;;;;;;;;;5109915;28;20445;-78
2022/02/09 09:08:22;;;;;;;5.50;3.93;;;;;;;;;;5109064;28;20489;-80
2022/02/09 09:11:09;;;;;;;7.73;5.80;;;;;;;;;;5092680;28;20531;-77
2022/02/09 09:19:28;;;;;;;11.40;6.77;;;;;;;;;;5092860;28;20431;-84
2022/02/09 10:02:46;;;;;;;6.23;5.07;;;;;;;;;;5049013;28;20571;-79
2022/02/09 10:32:59;;;;;;;7.80;5.40;;;;;;;;;;5100042;27;20453;-78
2022/02/09 10:35:29;;;;;;;6.43;4.90;;;;;;;;;;5112704;28;20774;-78
2022/02/09 10:38:00;;;;;;;9.60;5.30;;;;;;;;;;5115121;27;20572;-80
2022/02/09 10:40:28;;;;;;;6.40;4.30;;;;;;;;;;5114269;27;20877;-79
2022/02/09 10:43:01;;;;;;;4.90;3.97;;;;;;;;;;5102696;27;20432;-78
2022/02/09 10:45:32;;;;;;;7.07;4.50;;;;;;;;;;5089551;28;20423;-80
2022/02/09 10:47:59;;;;;;;6.43;3.93;;;;;;;;;;5089651;28;20532;-80
2022/02/09 10:50:31;;;;;;;6.53;3.70;;;;;;;;;;5089549;28;20473;-78
2022/02/09 10:52:59;;;;;;;6.07;4.10;;;;;;;;;;5090184;28;20665;-75
2022/02/09 10:55:28;;;;;;;7.93;3.87;;;;;;;;;;5091932;28;20435;-77
2022/02/09 10:57:55;;;;;;;4.50;3.30;;;;;;;;;;5091736;28;20435;-85
2022/02/09 11:00:25;;;;;;;3.37;3.07;;;;;;;;;;5116640;27;20470;-77
2022/02/09 11:02:53;;;;;;;8.33;3.60;;;;;;;;;;5116206;27;20426;-79
2022/02/09 11:05:20;;;;;;;6.03;3.73;;;;;;;;;;5112851;27;20438;-79
2022/02/09 11:07:48;;;;;;;5.10;3.23;;;;;;;;;;5127174;27;20485;-86
2022/02/09 11:10:15;;;;;;;5.47;2.87;;;;;;;;;;5130397;27;20505;-82
2022/02/09 11:12:43;;;;;;;4.23;2.90;;;;;;;;;;5130305;27;20438;-84
2022/02/09 11:15:11;;;;;;;4.30;3.23;;;;;;;;;;5129289;27;21037;-80
2022/02/09 11:17:45;;;;;;;9.43;3.50;;;;;;;;;;5100324;27;20445;-78
2022/02/09 11:20:12;;;;;;;3.33;2.70;;;;;;;;;;5113582;27;20469;-78
2022/02/09 11:22:41;;;;;;;3.33;2.33;;;;;;;;;;5119745;27;20782;-77
2022/02/09 11:25:12;;;;;;;2.93;2.57;;;;;;;;;;5121218;27;20458;-77
2022/02/09 11:27:47;;;;;;;4.23;2.93;;;;;;;;;;5110176;28;20482;-77
2022/02/09 11:30:23;;;;;;;4.43;3.27;;;;;;;;;;5110662;28;20981;-77
2022/02/09 11:33:17;;;;;;;4.73;2.60;;;;;;;;;;5122774;27;20544;-79
2022/02/09 11:36:01;;;;;;;4.90;2.80;;;;;;;;;;5115147;27;20930;-76
2022/02/09 11:38:39;;;;;;;6.47;3.00;;;;;;;;;;5117733;27;20800;-78
2022/02/09 11:41:17;;;;;;;4.10;2.50;;;;;;;;;;5130320;27;20457;-78
2022/02/09 11:43:51;;;;;;;4.70;2.53;;;;;;;;;;5111101;27;20458;-76
2022/02/09 11:46:40;;;;;;;4.90;2.83;;;;;;;;;;5110183;28;20439;-79
2022/02/09 11:52:08;;;;;;;7.20;2.73;;;;;;;;;;5106134;27;20459;-78
2022/02/09 11:54:51;;;;;;;6.23;3.10;;;;;;;;;;5115103;27;20445;-77
2022/02/09 11:57:49;;;;;;;8.67;4.30;;;;;;;;;;5129947;27;20507;-80
2022/02/09 12:00:27;;;;;;;5.60;3.17;;;;;;;;;;5118971;27;20465;-76
2022/02/09 12:11:15;;;;;;;4.53;2.70;;;;;;;;;;5111471;27;20969;-78
2022/02/09 12:13:53;;;;;;;6.80;3.70;;;;;;;;;;5119133;27;20442;-78
2022/02/09 12:16:35;;;;;;;7.40;3.83;;;;;;;;;;5128752;27;20421;-79
2022/02/09 12:19:05;;;;;;;8.83;3.60;;;;;;;;;;5117518;27;21023;-80
2022/02/09 12:21:44;;;;;;;15.20;3.90;;;;;;;;;;5122496;27;20470;-79
2022/02/09 12:24:19;;;;;;;7.90;3.90;;;;;;;;;;5130124;27;21108;-79
2022/02/09 12:27:01;;;;;;;10.97;4.13;;;;;;;;;;5111022;27;20491;-82
2022/02/09 12:29:32;;;;;;;8.30;3.73;;;;;;;;;;5112441;27;20489;-82
2022/02/09 12:31:59;;;;;;;7.70;3.53;;;;;;;;;;5121065;27;20875;-78
2022/02/09 12:34:29;;;;;;;10.30;5.00;;;;;;;;;;5129493;27;20433;-81
2022/02/09 12:36:56;;;;;;;10.30;5.00;;;;;;;;;;5127968;27;20524;-80
2022/02/09 12:39:24;;;;;;;11.53;4.73;;;;;;;;;;5128711;27;20946;-78
2022/02/09 12:41:54;;;;;;;9.30;4.30;;;;;;;;;;5129911;27;20512;-78
2022/02/09 12:44:23;;;;;;;8.57;4.00;;;;;;;;;;5114574;27;20475;-80
2022/02/09 12:46:51;;;;;;;8.23;3.83;;;;;;;;;;5114270;28;20466;-78
2022/02/09 12:49:19;;;;;;;9.60;3.80;;;;;;;;;;5124215;27;20473;-81
2022/02/09 12:51:48;;;;;;;10.43;3.63;;;;;;;;;;5129164;27;20916;-83
2022/02/09 12:54:17;;;;;;;6.70;3.00;;;;;;;;;;5129964;27;21414;-81
2022/02/09 12:56:45;;;;;;;5.40;3.27;;;;;;;;;;5122275;28;20454;-80
2022/02/09 12:59:14;;;;;;;8.27;3.80;;;;;;;;;;5127352;27;20434;-81
2022/02/09 13:01:42;;;;;;;5.80;3.30;;;;;;;;;;5097162;27;20489;-82
2022/02/09 13:04:12;;;;;;;6.50;3.77;;;;;;;;;;5114128;27;20423;-82
2022/02/09 13:06:45;;;;;;;7.93;3.80;;;;;;;;;;5108311;27;20459;-81
2022/02/09 13:09:17;;;;;;;6.40;3.20;;;;;;;;;;5109059;28;20559;-80
2022/02/09 13:11:44;;;;;;;6.23;3.17;;;;;;;;;;5110156;28;20483;-82
2022/02/09 13:14:15;;;;;;;8.83;3.73;;;;;;;;;;5110041;28;20634;-87
2022/02/09 13:16:53;;;;;;;6.20;3.43;;;;;;;;;;5123771;27;20544;-79
2022/02/09 13:19:41;;;;;;;6.53;3.10;;;;;;;;;;5112600;27;20814;-83
2022/02/09 13:22:34;;;;;;;7.03;3.20;;;;;;;;;;5110599;28;20443;-82
2022/02/09 13:25:41;;;;;;;4.63;2.90;;;;;;;;;;5110370;28;20471;-77
2022/02/09 14:04:01;;;;;;;5.90;3.00;;;;;;;;;;5126923;27;20517;-81
2022/02/09 14:12:05;;;;;;;6.30;2.83;;;;;;;;;;5128915;27;20445;-77
2022/02/09 14:14:58;;;;;;;8.80;3.07;;;;;;;;;;5119734;27;20515;-76
2022/02/09 14:52:34;;;;;;;5.63;3.33;;;;;;;;;;5109338;27;20789;-74
2022/02/09 14:55:17;;;;;;;5.60;3.17;;;;;;;;;;5131586;27;20434;-76
2022/02/09 14:57:59;;;;;;;12.00;3.70;;;;;;;;;;5131533;27;20433;-77
2022/02/09 15:00:27;;;;;;;7.83;3.23;;;;;;;;;;5099609;27;20477;-78
2022/02/09 15:03:02;;;;;;;7.50;4.43;;;;;;;;;;5118228;27;20434;-77
2022/02/09 15:08:19;;;;;;;6.17;3.53;;;;;;;;;;5130283;27;20521;-82
2022/02/09 15:10:52;;;;;;;7.40;3.60;;;;;;;;;;5126390;27;20472;-77
2022/02/09 15:13:31;;;;;;;6.40;3.90;;;;;;;;;;5130948;27;20864;-78
2022/02/09 15:16:07;;;;;;;4.93;3.27;;;;;;;;;;5131446;27;20438;-75
2022/02/09 15:19:02;;;;;;;9.50;3.77;;;;;;;;;;5113246;27;20465;-79
2022/02/09 15:22:00;;;;;;;7.90;5.30;;;;;;;;;;5111302;27;20465;-85
2022/02/09 15:24:17;;;;;;;13.60;7.90;;;;;;;;;;5125812;27;20445;-80
2022/02/09 15:26:47;;;;;;;8.60;6.17;;;;;;;;;;5130054;27;20462;-77
2022/02/09 15:29:17;;;;;;;6.63;4.97;;;;;;;;;;5121838;27;20470;-75
2022/02/09 15:31:49;;;;;;;10.20;5.07;;;;;;;;;;5130638;27;20461;-75
2022/02/09 15:34:22;;;;;;;7.53;3.87;;;;;;;;;;5105721;27;20470;-73
2022/02/09 15:37:00;;;;;;;6.53;4.30;;;;;;;;;;5111778;27;20842;-74
2022/02/09 15:39:29;;;;;;;6.33;3.90;;;;;;;;;;5114816;27;20442;-76
2022/02/09 15:42:06;;;;;;;6.17;3.90;;;;;;;;;;5109955;28;20437;-77
2022/02/09 15:58:20;;;;;;;5.73;3.37;;;;;;;;;;5111939;27;20468;-79
2022/02/09 16:06:29;;;;;;;6.97;3.50;;;;;;;;;;5106089;27;20985;-79
2022/02/09 16:09:12;;;;;;;5.23;2.90;;;;;;;;;;5100306;28;20547;-78
2022/02/09 16:17:47;;;;;;;6.70;3.67;;;;;;;;;;5127435;27;20852;-78
2022/02/09 16:22:52;;;;;;;13.47;4.13;;;;;;;;;;5109298;27;20488;-78
2022/02/09 16:25:27;;;;;;;11.73;3.37;;;;;;;;;;5103449;28;21013;-76
2022/02/09 16:33:26;;;;;;;6.30;3.30;;;;;;;;;;5112233;28;20524;-76
2022/02/09 16:38:52;;;;;;;7.40;4.23;;;;;;;;;;5095221;28;20504;-77
2022/02/09 16:46:41;;;;;;;10.50;3.77;;;;;;;;;;5107574;28;20427;-77
2022/02/09 16:49:13;;;;;;;6.03;3.90;;;;;;;;;;5107417;28;20547;-78
2022/02/09 16:51:46;;;;;;;16.20;4.70;;;;;;;;;;5111691;28;20434;-77
2022/02/09 16:54:29;;;;;;;11.07;4.97;;;;;;;;;;5110803;28;20438;-81
2022/02/09 16:57:05;;;;;;;8.47;5.17;;;;;;;;;;5115067;27;21461;-76
2022/02/09 17:18:47;;;;;;;16.00;5.03;;;;;;;;;;5115782;27;20457;-79
2022/02/09 17:21:14;;;;;;;14.70;5.10;;;;;;;;;;5114260;27;20465;-77
2022/02/09 17:23:41;;;;;;;10.30;4.60;;;;;;;;;;5109546;27;20913;-78
2022/02/09 17:26:09;;;;;;;8.37;5.43;;;;;;;;;;5126792;27;20469;-81
2022/02/09 17:28:36;;;;;;;14.03;5.07;;;;;;;;;;5122869;27;20477;-79
2022/02/09 17:33:41;;;;;;;17.60;6.77;;;;;;;;;;5118437;27;20437;-79
2022/02/09 17:36:13;;;;;;;23.90;6.43;;;;;;;;;;5129181;27;20730;-83
2022/02/09 17:38:49;;;;;;;14.67;6.13;;;;;;;;;;5123832;27;20544;-81
2022/02/09 17:57:34;;;;;;;12.50;5.33;;;;;;;;;;5110019;28;20435;-83
2022/02/09 18:00:09;;;;;;;8.60;5.57;;;;;;;;;;5112493;27;20474;-83
2022/02/09 18:02:36;;;;;;;9.67;6.03;;;;;;;;;;5111533;28;20442;-78
2022/02/09 18:05:07;;;;;;;9.53;6.30;;;;;;;;;;5118100;27;20457;-80
2022/02/09 18:07:36;;;;;;;11.50;6.77;;;;;;;;;;5130291;27;20995;-78
2022/02/09 18:10:14;;;;;;;11.90;6.70;;;;;;;;;;5115254;27;20478;-78
2022/02/09 18:12:57;;;;;;;19.57;7.23;;;;;;;;;;5121368;27;20913;-80
2022/02/09 18:15:44;;;;;;;12.93;6.87;;;;;;;;;;5116254;27;20608;-78
2022/02/09 18:29:04;;;;;;;11.20;8.30;;;;;;;;;;5127575;27;20469;-82
2022/02/09 18:31:37;;;;;;;10.38;7.55;;;;;;;;;;5134030;27;20496;-79
2022/02/09 18:34:18;;;;;;;10.47;7.30;;;;;;;;;;5119193;27;20200;-76
2022/02/09 18:44:58;;;;;;;11.47;7.50;;;;;;;;;;5112638;27;20995;-80
2022/02/09 18:47:45;;;;;;;11.73;6.30;;;;;;;;;;5112843;28;20442;-78
2022/02/09 19:01:20;;;;;;;15.03;9.13;;;;;;;;;;5107984;28;20223;-79
2022/02/09 19:03:54;;;;;;;20.17;7.97;;;;;;;;;;5120357;27;20456;-78
2022/02/09 19:06:26;;;;;;;12.53;8.20;;;;;;;;;;5112605;28;20792;-77
2022/02/09 19:14:08;;;;;;;13.17;8.50;;;;;;;;;;5116199;27;20475;-78
2022/02/09 19:14:32;;;;;;;16.20;8.13;;;;;;;;;;5110398;27;20208;-77
2022/02/09 19:17:04;;;;;;;12.52;8.10;;;;;;;;;;5116363;27;20449;-78
2022/02/09 19:19:54;;;;;;;10.30;7.00;;;;;;;;;;5119236;27;20192;-79
2022/02/09 19:46:45;;;;;;;14.57;7.57;;;;;;;;;;5109796;28;20533;-79
2022/02/09 19:49:18;;;;;;;12.03;7.43;;;;;;;;;;5111995;27;20474;-79
2022/02/09 19:52:01;;;;;;;16.38;7.30;;;;;;;;;;5109071;28;20461;-79
2022/02/09 19:54:41;;;;;;;11.13;6.30;;;;;;;;;;5118860;27;20188;-82
2022/02/09 19:57:20;;;;;;;10.90;7.50;;;;;;;;;;5091998;28;20209;-81
2022/02/09 19:59:48;;;;;;;20.37;7.17;;;;;;;;;;5086266;28;20598;-79
2022/02/09 20:02:18;;;;;;;11.30;6.80;;;;;;;;;;5092206;28;20446;-81
2022/02/09 20:04:46;;;;;;;11.53;7.03;;;;;;;;;;5101430;28;20848;-82
2022/02/09 20:07:13;;;;;;;14.67;8.30;;;;;;;;;;5094892;28;20484;-79
2022/02/09 20:09:40;;;;;;;18.73;7.93;;;;;;;;;;5094792;28;20497;-80
2022/02/09 20:12:07;;;;;;;17.07;7.50;;;;;;;;;;5077662;28;20650;-81
2022/02/09 20:14:35;;;;;;;11.97;6.90;;;;;;;;;;5094272;28;21008;-81
2022/02/09 20:17:05;;;;;;;15.35;9.65;;;;;;;;;;5125486;27;20454;-81
2022/02/09 20:19:33;;;;;;;12.00;7.88;;;;;;;;;;5127519;27;20200;-82
2022/02/09 20:22:02;;;;;;;16.90;8.30;;;;;;;;;;5121172;27;20556;-79
2022/02/09 20:24:29;;;;;;;11.90;7.60;;;;;;;;;;5105686;28;20189;-80
2022/02/09 20:27:02;;;;;;;13.45;8.40;;;;;;;;;;5100073;28;20193;-81
2022/02/09 20:29:31;;;;;;;11.88;7.32;;;;;;;;;;5108159;28;20212;-80
2022/02/09 20:32:11;;;;;;;12.70;7.53;;;;;;;;;;5112145;28;20892;-80
2022/02/09 20:34:48;;;;;;;10.98;7.85;;;;;;;;;;5118320;28;20188;-78
2022/02/09 20:37:16;;;;;;;16.65;8.88;;;;;;;;;;5112650;28;20578;-83
2022/02/09 20:39:54;;;;;;;12.48;8.25;;;;;;;;;;5110078;28;20220;-80
2022/02/09 20:42:22;;;;;;;10.25;7.53;;;;;;;;;;5110720;28;20192;-80
2022/02/09 20:44:55;;;;;;;14.68;6.55;;;;;;;;;;5113503;28;20196;-80
2022/02/09 20:47:22;;;;;;;13.98;8.48;;;;;;;;;;5113830;27;20199;-80
2022/02/09 20:49:50;;;;;;;14.75;8.50;;;;;;;;;;5107554;27;20239;-79
2022/02/09 20:52:17;;;;;;;14.88;7.15;;;;;;;;;;5113654;27;20189;-79
2022/02/09 20:54:45;;;;;;;11.55;7.65;;;;;;;;;;5118887;27;20196;-79
2022/02/09 20:57:12;;;;;;;12.50;8.45;;;;;;;;;;5120785;27;20203;-79
2022/02/09 20:59:44;;;;;;;13.45;8.13;;;;;;;;;;5123186;27;20228;-78
2022/02/09 21:05:04;;;;;;;13.07;8.93;;;;;;;;;;5113932;28;20277;-79
2022/02/09 21:07:39;;;;;;;13.95;8.85;;;;;;;;;;5114252;28;20558;-80
2022/02/09 21:10:22;;;;;;;14.38;9.93;;;;;;;;;;5119872;27;20230;-80
2022/02/09 21:12:57;;;;;;;21.50;9.73;;;;;;;;;;5117979;27;20662;-80
2022/02/09 21:15:38;;;;;;;12.00;7.80;;;;;;;;;;5119230;27;20200;-79
2022/02/09 21:18:28;;;;;;;16.17;8.80;;;;;;;;;;5113402;27;20781;-80
2022/02/09 21:21:20;;;;;;;10.85;7.68;;;;;;;;;;5113324;28;20217;-79
2022/02/09 21:26:45;;;;;;;12.25;8.05;;;;;;;;;;5126651;27;20620;-79
2022/02/09 21:32:17;;;;;;;18.83;8.00;;;;;;;;;;5119871;27;20421;-80
2022/02/09 21:56:14;;;;;;;15.47;8.63;;;;;;;;;;5123602;27;20230;-80
2022/02/09 21:58:46;;;;;;;14.07;8.43;;;;;;;;;;5130658;27;20199;-78
2022/02/09 22:07:03;;;;;;;13.05;8.10;;;;;;;;;;5075947;28;20189;-80
2022/02/09 22:20:20;;;;;;;17.20;9.88;;;;;;;;;;5075299;28;20210;-80
2022/02/09 22:23:14;;;;;;;14.85;10.00;;;;;;;;;;5071790;28;20229;-80
2022/02/09 22:28:30;;;;;;;17.13;9.60;;;;;;;;;;5086557;28;20230;-79
2022/02/09 22:47:56;;;;;;;14.85;9.60;;;;;;;;;;5125133;28;20191;-79
2022/02/09 22:50:38;;;;;;;19.17;11.52;;;;;;;;;;5123798;27;20956;-79
2022/02/09 22:55:48;;;;;;;17.52;10.10;;;;;;;;;;5118101;28;20224;-79
2022/02/09 22:58:16;;;;;;;18.52;9.68;;;;;;;;;;5112592;28;20201;-80
2022/02/09 23:00:51;;;;;;;18.10;10.38;;;;;;;;;;5111503;28;20208;-80
2022/02/09 23:03:24;;;;;;;16.77;9.70;;;;;;;;;;5124897;28;20286;-79
2022/02/09 23:09:10;;;;;;;13.98;8.90;;;;;;;;;;5110036;28;20195;-80
2022/02/09 23:11:51;;;;;;;13.60;9.18;;;;;;;;;;5105519;28;20209;-80
2022/02/09 23:14:31;;;;;;;11.85;8.52;;;;;;;;;;5108222;28;20544;-78
2022/02/09 23:25:29;;;;;;;14.60;9.38;;;;;;;;;;5125908;28;20625;-78
2022/02/09 23:55:19;;;;;;;14.80;10.25;;;;;;;;;;5098044;28;20315;-79
2022/02/09 23:58:11;;;;;;;19.88;10.23;;;;;;;;;;5096754;28;20262;-80
